Time;durP1;ratioP1;P1;durP2;ratioP2;P2;SDS_P1;SDS_P2;PMS_P1;PMS_P2;Temp;Humidity;BMP_temperature;BMP_pressure;BME280_temperature;BME280_humidity;BME280_pressure;Samples;Min_cycle;Max_cycle;Signal;HPM_P1;HPM_P2
2022/03/11 00:00:04;;;;;;;9.27;6.53;;;;;;;;;;4985125;28;20084;-52
2022/03/11 00:02:30;;;;;;;11.13;6.25;;;;;;;;;;4985977;28;20077;-52
2022/03/11 00:04:58;;;;;;;10.85;6.88;;;;;;;;;;4984520;28;20023;-53
2022/03/11 00:07:24;;;;;;;8.18;6.32;;;;;;;;;;4985999;28;20643;-49
2022/03/11 00:09:51;;;;;;;9.13;6.85;;;;;;;;;;4985683;28;20129;-50
2022/03/11 00:12:17;;;;;;;8.30;6.45;;;;;;;;;;4985777;28;20054;-53
2022/03/11 00:14:43;;;;;;;10.95;6.75;;;;;;;;;;4984261;28;20646;-52
2022/03/11 00:17:10;;;;;;;9.55;6.70;;;;;;;;;;4986126;28;20129;-53
2022/03/11 00:19:37;;;;;;;8.85;6.55;;;;;;;;;;4986299;28;20033;-53
2022/03/11 00:22:03;;;;;;;9.55;6.63;;;;;;;;;;4985548;28;20041;-53
2022/03/11 00:24:31;;;;;;;9.73;6.65;;;;;;;;;;4972362;28;20037;-53
2022/03/11 00:26:58;;;;;;;9.45;6.32;;;;;;;;;;4967485;28;20494;-53
2022/03/11 00:29:24;;;;;;;8.27;6.18;;;;;;;;;;4966682;28;20031;-53
2022/03/11 00:31:50;;;;;;;11.88;6.47;;;;;;;;;;4985027;28;20034;-53
2022/03/11 00:34:17;;;;;;;7.97;6.22;;;;;;;;;;4985456;28;20031;-53
2022/03/11 00:36:43;;;;;;;8.50;6.47;;;;;;;;;;4967057;28;20425;-53
2022/03/11 00:39:10;;;;;;;9.45;6.38;;;;;;;;;;4986097;28;20044;-52
2022/03/11 00:41:37;;;;;;;10.40;7.22;;;;;;;;;;4985998;28;20033;-53
2022/03/11 00:44:03;;;;;;;10.88;6.82;;;;;;;;;;4984970;28;20046;-52
2022/03/11 00:46:29;;;;;;;10.07;6.68;;;;;;;;;;4971420;28;20034;-53
2022/03/11 00:48:55;;;;;;;9.25;6.70;;;;;;;;;;4965673;28;20605;-51
2022/03/11 00:51:21;;;;;;;8.38;6.10;;;;;;;;;;4966104;28;20077;-52
2022/03/11 00:53:48;;;;;;;10.60;6.80;;;;;;;;;;4965556;28;20035;-52
2022/03/11 00:56:14;;;;;;;12.05;6.65;;;;;;;;;;4965994;28;20119;-52
2022/03/11 00:58:40;;;;;;;8.60;6.30;;;;;;;;;;4965366;28;20113;-51
2022/03/11 01:01:07;;;;;;;9.35;6.32;;;;;;;;;;4966487;28;20041;-52
2022/03/11 01:03:34;;;;;;;11.70;6.18;;;;;;;;;;4990394;28;20026;-54
2022/03/11 01:06:00;;;;;;;10.10;6.32;;;;;;;;;;4985077;28;20041;-54
2022/03/11 01:08:27;;;;;;;11.27;6.13;;;;;;;;;;4985021;28;20022;-52
2022/03/11 01:10:53;;;;;;;9.95;6.63;;;;;;;;;;4984932;28;20109;-53
2022/03/11 01:13:20;;;;;;;10.57;6.80;;;;;;;;;;4981264;28;20070;-54
2022/03/11 01:15:46;;;;;;;9.63;6.20;;;;;;;;;;4965436;28;20027;-52
2022/03/11 01:18:12;;;;;;;10.88;6.72;;;;;;;;;;4965625;28;20023;-53
2022/03/11 01:20:38;;;;;;;9.98;6.20;;;;;;;;;;4966141;28;20063;-53
2022/03/11 01:23:05;;;;;;;10.88;5.93;;;;;;;;;;4966014;28;20031;-51
2022/03/11 01:25:33;;;;;;;11.43;6.50;;;;;;;;;;4965490;28;20110;-53
2022/03/11 01:27:59;;;;;;;7.68;5.57;;;;;;;;;;4965229;28;20558;-53
2022/03/11 01:30:26;;;;;;;9.00;5.88;;;;;;;;;;4983617;28;20038;-53
2022/03/11 01:32:53;;;;;;;9.23;6.32;;;;;;;;;;4984487;28;20026;-53
2022/03/11 01:35:19;;;;;;;8.85;6.38;;;;;;;;;;4985654;28;20023;-51
2022/03/11 01:37:45;;;;;;;10.88;7.00;;;;;;;;;;4988459;28;20030;-53
2022/03/11 01:40:11;;;;;;;11.95;7.15;;;;;;;;;;4987449;28;20041;-53
2022/03/11 01:42:39;;;;;;;11.70;6.95;;;;;;;;;;4989087;28;20120;-52
2022/03/11 01:45:06;;;;;;;11.35;7.45;;;;;;;;;;4988693;28;20418;-52
2022/03/11 01:47:32;;;;;;;12.15;7.07;;;;;;;;;;4988188;28;20053;-52
2022/03/11 01:49:58;;;;;;;10.77;7.57;;;;;;;;;;4986794;28;20034;-52
2022/03/11 01:52:24;;;;;;;10.25;6.53;;;;;;;;;;4988477;28;20033;-51
2022/03/11 01:54:50;;;;;;;9.35;6.75;;;;;;;;;;4987776;28;20443;-53
2022/03/11 01:57:17;;;;;;;8.73;6.25;;;;;;;;;;4988387;28;20088;-52
2022/03/11 01:59:44;;;;;;;9.20;5.90;;;;;;;;;;4987314;28;20027;-53
2022/03/11 02:02:10;;;;;;;9.07;6.00;;;;;;;;;;4988368;28;20065;-49
2022/03/11 02:04:36;;;;;;;8.95;6.45;;;;;;;;;;4988637;28;20293;-53
2022/03/11 02:07:02;;;;;;;8.63;5.82;;;;;;;;;;4987148;28;20026;-53
2022/03/11 02:09:28;;;;;;;7.25;5.22;;;;;;;;;;4978684;28;20118;-53
2022/03/11 02:11:54;;;;;;;7.70;5.25;;;;;;;;;;4968421;28;20019;-52
2022/03/11 02:14:21;;;;;;;8.00;5.35;;;;;;;;;;4968493;28;20074;-50
2022/03/11 02:16:47;;;;;;;7.30;5.57;;;;;;;;;;4968069;28;20031;-52
2022/03/11 02:19:14;;;;;;;8.82;5.65;;;;;;;;;;4968446;28;20053;-52
2022/03/11 02:21:47;;;;;;;8.93;5.95;;;;;;;;;;4968089;28;20062;-53
2022/03/11 02:24:17;;;;;;;7.60;5.53;;;;;;;;;;4968429;28;20113;-54
2022/03/11 02:26:43;;;;;;;9.82;5.65;;;;;;;;;;4968002;28;20521;-51
2022/03/11 02:29:09;;;;;;;7.20;5.35;;;;;;;;;;4968680;28;20031;-54
2022/03/11 02:31:35;;;;;;;8.57;5.22;;;;;;;;;;4968548;28;20049;-54
2022/03/11 02:34:04;;;;;;;8.38;5.20;;;;;;;;;;4967920;28;20054;-52
2022/03/11 02:36:30;;;;;;;8.23;5.60;;;;;;;;;;4968158;28;20416;-52
2022/03/11 02:38:56;;;;;;;7.65;5.65;;;;;;;;;;4967736;28;20117;-52
2022/03/11 02:41:22;;;;;;;7.93;5.28;;;;;;;;;;4967884;28;20034;-53
2022/03/11 02:43:48;;;;;;;14.57;6.03;;;;;;;;;;4967451;28;20097;-52
2022/03/11 02:46:14;;;;;;;9.38;6.20;;;;;;;;;;4982402;28;20084;-52
2022/03/11 02:48:40;;;;;;;10.25;5.65;;;;;;;;;;4986964;28;20046;-52
2022/03/11 02:51:08;;;;;;;8.80;5.95;;;;;;;;;;4987981;28;20022;-53
2022/03/11 02:53:40;;;;;;;10.65;6.95;;;;;;;;;;4987221;28;20026;-53
2022/03/11 02:56:08;;;;;;;6.78;5.57;;;;;;;;;;4986465;28;20105;-53
2022/03/11 02:58:35;;;;;;;8.45;5.97;;;;;;;;;;4985859;28;20177;-53
2022/03/11 03:01:01;;;;;;;8.68;6.05;;;;;;;;;;4986426;28;20271;-53
2022/03/11 03:03:27;;;;;;;9.65;6.35;;;;;;;;;;4986860;28;20636;-53
2022/03/11 03:05:53;;;;;;;8.55;5.90;;;;;;;;;;4983619;28;20117;-51
2022/03/11 03:08:20;;;;;;;9.05;5.97;;;;;;;;;;4967399;28;20114;-53
2022/03/11 03:10:46;;;;;;;8.73;5.93;;;;;;;;;;4979938;28;20069;-54
2022/03/11 03:13:13;;;;;;;8.93;6.13;;;;;;;;;;4986754;28;20031;-52
2022/03/11 03:15:41;;;;;;;7.72;5.38;;;;;;;;;;4986647;28;20033;-52
2022/03/11 03:18:07;;;;;;;7.70;5.88;;;;;;;;;;4987032;28;20529;-52
2022/03/11 03:20:33;;;;;;;10.57;6.53;;;;;;;;;;4979441;28;20035;-50
2022/03/11 03:22:59;;;;;;;8.75;6.63;;;;;;;;;;4967118;28;20031;-52
2022/03/11 03:25:26;;;;;;;10.23;6.10;;;;;;;;;;4965620;28;20054;-53
2022/03/11 03:27:53;;;;;;;9.18;6.35;;;;;;;;;;4980458;28;20528;-54
2022/03/11 03:30:19;;;;;;;9.25;6.28;;;;;;;;;;4981214;28;20029;-52
2022/03/11 03:32:46;;;;;;;8.05;5.93;;;;;;;;;;4966789;28;20023;-53
2022/03/11 03:35:12;;;;;;;7.78;5.75;;;;;;;;;;4966986;28;20027;-53
2022/03/11 03:37:39;;;;;;;10.32;6.72;;;;;;;;;;4967533;28;20157;-52
2022/03/11 03:40:07;;;;;;;9.10;6.00;;;;;;;;;;4969899;28;20676;-53
2022/03/11 03:42:34;;;;;;;8.35;5.68;;;;;;;;;;4985560;28;20034;-52
2022/03/11 03:45:00;;;;;;;6.68;4.85;;;;;;;;;;4985781;28;21184;-53
2022/03/11 03:47:26;;;;;;;8.93;5.65;;;;;;;;;;4985911;28;20478;-52
2022/03/11 03:49:52;;;;;;;7.10;4.80;;;;;;;;;;4985260;28;20516;-53
2022/03/11 03:52:19;;;;;;;5.18;3.78;;;;;;;;;;4969479;28;20031;-53
2022/03/11 03:54:46;;;;;;;5.53;3.65;;;;;;;;;;4966254;28;20034;-53
2022/03/11 03:57:12;;;;;;;6.82;4.50;;;;;;;;;;4966724;28;20027;-53
2022/03/11 03:59:39;;;;;;;5.65;4.50;;;;;;;;;;4966943;28;20030;-53
2022/03/11 04:02:05;;;;;;;5.38;4.32;;;;;;;;;;4984267;28;20548;-53
2022/03/11 04:04:32;;;;;;;5.45;4.15;;;;;;;;;;4985800;28;20041;-53
2022/03/11 04:06:59;;;;;;;5.50;4.05;;;;;;;;;;4967327;28;20710;-54
2022/03/11 04:09:26;;;;;;;7.60;4.55;;;;;;;;;;4985794;28;20030;-53
2022/03/11 04:11:52;;;;;;;5.43;3.92;;;;;;;;;;4984871;28;20058;-53
2022/03/11 04:14:18;;;;;;;6.45;4.07;;;;;;;;;;4985461;28;20066;-53
2022/03/11 04:16:45;;;;;;;6.00;4.32;;;;;;;;;;4967005;28;20374;-52
2022/03/11 04:19:11;;;;;;;6.07;4.45;;;;;;;;;;4985385;28;20022;-52
2022/03/11 04:21:37;;;;;;;8.00;4.30;;;;;;;;;;4972542;28;20114;-53
2022/03/11 04:24:04;;;;;;;5.90;4.18;;;;;;;;;;4971950;28;20120;-52
2022/03/11 04:26:30;;;;;;;5.35;4.10;;;;;;;;;;4985449;28;20057;-53
2022/03/11 04:28:57;;;;;;;5.25;4.03;;;;;;;;;;4985459;28;20031;-53
2022/03/11 04:31:25;;;;;;;5.25;4.15;;;;;;;;;;4985268;28;20520;-53
2022/03/11 04:33:51;;;;;;;6.10;4.07;;;;;;;;;;4984501;28;20033;-52
2022/03/11 04:36:17;;;;;;;4.95;3.38;;;;;;;;;;4985116;28;20030;-52
2022/03/11 04:38:44;;;;;;;5.40;4.03;;;;;;;;;;4967963;28;20030;-54
2022/03/11 04:41:10;;;;;;;6.50;3.78;;;;;;;;;;4985256;28;20026;-54
2022/03/11 04:43:36;;;;;;;6.07;4.30;;;;;;;;;;4985076;28;20046;-54
2022/03/11 04:46:03;;;;;;;5.18;3.80;;;;;;;;;;4984752;28;20046;-53
2022/03/11 04:48:31;;;;;;;3.85;3.40;;;;;;;;;;4985224;28;20639;-54
2022/03/11 04:50:57;;;;;;;4.93;3.88;;;;;;;;;;4985055;28;20027;-52
2022/03/11 04:53:24;;;;;;;6.00;3.97;;;;;;;;;;4985415;28;20390;-53
2022/03/11 04:55:50;;;;;;;4.82;3.35;;;;;;;;;;4984220;28;20041;-51
2022/03/11 04:58:16;;;;;;;4.50;3.40;;;;;;;;;;4967263;28;20550;-53
2022/03/11 05:00:43;;;;;;;4.50;3.65;;;;;;;;;;4984801;28;20085;-55
2022/03/11 05:03:09;;;;;;;4.57;3.50;;;;;;;;;;4967859;28;20525;-54
2022/03/11 05:05:36;;;;;;;4.32;3.45;;;;;;;;;;4968408;28;20483;-53
2022/03/11 05:08:03;;;;;;;6.72;3.80;;;;;;;;;;4968447;28;20675;-54
2022/03/11 05:10:30;;;;;;;4.70;3.50;;;;;;;;;;4986858;28;20019;-52
2022/03/11 05:12:56;;;;;;;4.70;3.05;;;;;;;;;;4988688;28;20517;-53
2022/03/11 05:15:24;;;;;;;6.20;3.50;;;;;;;;;;4988742;28;20057;-53
2022/03/11 05:17:51;;;;;;;4.30;2.97;;;;;;;;;;4989118;28;20062;-54
2022/03/11 05:20:18;;;;;;;3.72;2.63;;;;;;;;;;4984702;28;20042;-54
2022/03/11 05:22:44;;;;;;;4.65;2.78;;;;;;;;;;4972029;28;20034;-53
2022/03/11 05:25:11;;;;;;;4.25;2.55;;;;;;;;;;4988549;28;20405;-53
2022/03/11 05:27:37;;;;;;;3.67;2.70;;;;;;;;;;4989155;28;20473;-54
2022/03/11 05:30:05;;;;;;;3.42;2.63;;;;;;;;;;4988478;28;20022;-53
2022/03/11 05:32:32;;;;;;;5.60;3.20;;;;;;;;;;4988674;28;20097;-52
2022/03/11 05:34:58;;;;;;;4.18;3.17;;;;;;;;;;4985557;28;20026;-53
2022/03/11 05:37:25;;;;;;;3.83;3.10;;;;;;;;;;4987627;28;20030;-53
2022/03/11 05:39:51;;;;;;;3.85;2.55;;;;;;;;;;4989874;28;20065;-54
2022/03/11 05:42:17;;;;;;;4.38;3.05;;;;;;;;;;4988859;28;20405;-54
2022/03/11 05:44:43;;;;;;;5.82;3.47;;;;;;;;;;4971858;28;20043;-54
2022/03/11 05:47:10;;;;;;;5.22;3.15;;;;;;;;;;4989457;28;20428;-53
2022/03/11 05:49:36;;;;;;;3.47;2.97;;;;;;;;;;4989555;28;20504;-52
2022/03/11 05:52:02;;;;;;;5.88;3.20;;;;;;;;;;4986602;28;20061;-52
2022/03/11 05:54:29;;;;;;;3.72;3.25;;;;;;;;;;4980431;28;20109;-53
2022/03/11 05:56:55;;;;;;;5.15;3.45;;;;;;;;;;4969910;28;20027;-53
2022/03/11 05:59:22;;;;;;;5.75;3.67;;;;;;;;;;4984109;28;20026;-54
2022/03/11 06:01:48;;;;;;;6.30;3.78;;;;;;;;;;4980402;28;20073;-54
2022/03/11 06:04:14;;;;;;;5.25;3.83;;;;;;;;;;4989298;28;20929;-53
2022/03/11 06:06:40;;;;;;;5.95;3.72;;;;;;;;;;4986781;28;20038;-53
2022/03/11 06:09:08;;;;;;;6.10;4.40;;;;;;;;;;4983038;28;20058;-52
2022/03/11 06:11:34;;;;;;;5.70;4.15;;;;;;;;;;4970232;28;20031;-52
2022/03/11 06:14:01;;;;;;;5.82;4.30;;;;;;;;;;4975424;28;20031;-53
2022/03/11 06:16:27;;;;;;;6.90;4.68;;;;;;;;;;4988261;28;20030;-53
2022/03/11 06:18:53;;;;;;;6.82;4.22;;;;;;;;;;4989010;28;20050;-52
2022/03/11 06:21:19;;;;;;;5.68;4.07;;;;;;;;;;4986943;28;20052;-54
2022/03/11 06:23:45;;;;;;;8.13;4.47;;;;;;;;;;4989389;28;20030;-53
2022/03/11 06:26:11;;;;;;;5.95;4.45;;;;;;;;;;4988810;28;20513;-54
2022/03/11 06:28:37;;;;;;;5.95;4.35;;;;;;;;;;4989414;28;20788;-53
2022/03/11 06:31:04;;;;;;;7.03;4.22;;;;;;;;;;4979774;28;20034;-54
2022/03/11 06:33:30;;;;;;;5.53;4.05;;;;;;;;;;4989098;28;20030;-53
2022/03/11 06:35:56;;;;;;;6.22;3.75;;;;;;;;;;4988865;28;20717;-54
2022/03/11 06:38:22;;;;;;;5.72;3.90;;;;;;;;;;4987853;28;20088;-54
2022/03/11 06:40:49;;;;;;;5.97;3.88;;;;;;;;;;4992964;28;20552;-54
2022/03/11 06:43:16;;;;;;;5.78;4.65;;;;;;;;;;4988022;28;20031;-54
2022/03/11 06:45:42;;;;;;;6.95;4.47;;;;;;;;;;4985636;28;20809;-53
2022/03/11 06:48:08;;;;;;;7.60;4.95;;;;;;;;;;4988336;28;20458;-53
2022/03/11 06:50:34;;;;;;;6.95;4.75;;;;;;;;;;4982651;28;20398;-54
2022/03/11 06:53:00;;;;;;;8.57;5.35;;;;;;;;;;4988620;28;20022;-54
2022/03/11 06:55:26;;;;;;;7.53;5.40;;;;;;;;;;4989345;28;20088;-53
2022/03/11 06:57:53;;;;;;;7.00;4.90;;;;;;;;;;4988269;28;20027;-53
2022/03/11 07:00:19;;;;;;;6.60;4.97;;;;;;;;;;4978838;28;20030;-54
2022/03/11 07:02:45;;;;;;;7.80;5.10;;;;;;;;;;4987570;28;20049;-52
2022/03/11 07:05:12;;;;;;;6.43;4.70;;;;;;;;;;4988851;28;20037;-54
2022/03/11 07:07:38;;;;;;;8.18;5.50;;;;;;;;;;4989440;28;20045;-53
2022/03/11 07:10:05;;;;;;;6.32;5.20;;;;;;;;;;4989043;28;20053;-53
2022/03/11 07:12:31;;;;;;;6.40;4.80;;;;;;;;;;4972712;28;20105;-52
2022/03/11 07:15:01;;;;;;;6.97;5.03;;;;;;;;;;4984360;28;20053;-53
2022/03/11 07:17:27;;;;;;;8.30;5.25;;;;;;;;;;4988778;28;20750;-52
2022/03/11 07:19:53;;;;;;;7.90;5.68;;;;;;;;;;4988817;28;20374;-53
2022/03/11 07:22:20;;;;;;;8.20;5.45;;;;;;;;;;4987520;28;20033;-53
2022/03/11 07:24:46;;;;;;;7.43;4.95;;;;;;;;;;4980651;28;20109;-54
2022/03/11 07:27:12;;;;;;;7.30;5.03;;;;;;;;;;4976719;28;20037;-50
2022/03/11 07:29:39;;;;;;;5.72;4.80;;;;;;;;;;4988851;28;20117;-54
2022/03/11 07:32:05;;;;;;;6.50;4.60;;;;;;;;;;4986691;28;20497;-53
2022/03/11 07:34:31;;;;;;;6.03;4.80;;;;;;;;;;4987900;28;20042;-54
2022/03/11 07:36:57;;;;;;;6.53;5.03;;;;;;;;;;4982845;28;20104;-54
2022/03/11 07:39:23;;;;;;;7.13;5.30;;;;;;;;;;4980577;28;20109;-51
2022/03/11 07:41:50;;;;;;;7.68;5.07;;;;;;;;;;4984253;28;20034;-53
2022/03/11 07:44:16;;;;;;;8.43;5.53;;;;;;;;;;4986986;28;20577;-54
2022/03/11 07:46:43;;;;;;;8.65;5.85;;;;;;;;;;4987872;28;20058;-53
2022/03/11 07:49:09;;;;;;;8.68;6.47;;;;;;;;;;4988711;28;20027;-54
2022/03/11 07:51:35;;;;;;;8.63;5.78;;;;;;;;;;4988351;28;20748;-53
2022/03/11 07:54:02;;;;;;;8.48;5.40;;;;;;;;;;4987508;28;20018;-52
2022/03/11 07:56:28;;;;;;;6.55;4.88;;;;;;;;;;4986779;28;20034;-55
2022/03/11 07:58:54;;;;;;;7.97;4.72;;;;;;;;;;4987340;28;20037;-55
2022/03/11 08:01:21;;;;;;;6.90;4.72;;;;;;;;;;4987225;28;20022;-54
2022/03/11 08:03:47;;;;;;;6.32;4.90;;;;;;;;;;4985898;28;20022;-55
2022/03/11 08:06:13;;;;;;;7.47;5.65;;;;;;;;;;4985672;28;20453;-53
2022/03/11 08:08:39;;;;;;;8.75;5.90;;;;;;;;;;4986329;28;20026;-54
2022/03/11 08:11:07;;;;;;;9.15;5.65;;;;;;;;;;4986505;28;20034;-51
2022/03/11 08:13:36;;;;;;;7.55;5.40;;;;;;;;;;4985551;28;20072;-55
2022/03/11 08:16:02;;;;;;;10.30;5.78;;;;;;;;;;4984000;28;20440;-55
2022/03/11 08:18:29;;;;;;;11.13;6.25;;;;;;;;;;4985684;28;20044;-53
2022/03/11 08:20:55;;;;;;;17.80;11.10;;;;;;;;;;4985488;28;20034;-53
2022/03/11 08:23:22;;;;;;;14.00;8.82;;;;;;;;;;4985609;28;20560;-55
2022/03/11 08:25:48;;;;;;;10.10;6.60;;;;;;;;;;4985571;28;20034;-54
2022/03/11 08:28:15;;;;;;;10.00;6.32;;;;;;;;;;4985570;28;20110;-53
2022/03/11 08:30:42;;;;;;;10.60;6.28;;;;;;;;;;4985523;28;20089;-52
2022/03/11 08:33:09;;;;;;;10.02;6.32;;;;;;;;;;4985926;28;20054;-54
2022/03/11 08:35:35;;;;;;;7.88;5.78;;;;;;;;;;4985730;28;20026;-54
2022/03/11 08:38:03;;;;;;;9.63;6.22;;;;;;;;;;4985360;28;20092;-53
2022/03/11 08:40:30;;;;;;;8.35;6.05;;;;;;;;;;4985572;28;20033;-54
2022/03/11 08:42:56;;;;;;;8.52;5.90;;;;;;;;;;4984808;28;20054;-54
2022/03/11 08:45:23;;;;;;;8.18;5.93;;;;;;;;;;4984709;28;20034;-51
2022/03/11 08:47:49;;;;;;;9.90;5.28;;;;;;;;;;4985131;28;20085;-54
2022/03/11 08:50:16;;;;;;;6.55;5.13;;;;;;;;;;4985465;28;20498;-53
2022/03/11 08:52:42;;;;;;;7.60;5.55;;;;;;;;;;4985283;28;20019;-54
2022/03/11 08:55:08;;;;;;;8.38;6.25;;;;;;;;;;4985965;28;20035;-53
2022/03/11 08:57:37;;;;;;;8.63;5.50;;;;;;;;;;4985014;28;20030;-54
2022/03/11 09:00:07;;;;;;;7.55;5.30;;;;;;;;;;4985099;28;20027;-53
2022/03/11 09:02:37;;;;;;;7.88;6.05;;;;;;;;;;4985200;28;20189;-53
2022/03/11 09:05:03;;;;;;;8.20;5.55;;;;;;;;;;4985059;28;20030;-53
2022/03/11 09:07:29;;;;;;;8.07;5.82;;;;;;;;;;4985195;28;20057;-53
2022/03/11 09:09:56;;;;;;;9.90;5.40;;;;;;;;;;4984811;28;20031;-54
2022/03/11 09:12:23;;;;;;;9.18;5.50;;;;;;;;;;4984816;28;20033;-54
2022/03/11 09:14:50;;;;;;;8.10;5.93;;;;;;;;;;4984858;28;20031;-53
2022/03/11 09:17:16;;;;;;;7.50;5.50;;;;;;;;;;4985308;28;20026;-53
2022/03/11 09:19:43;;;;;;;9.73;5.65;;;;;;;;;;4985150;28;20105;-53
2022/03/11 09:22:14;;;;;;;10.10;5.95;;;;;;;;;;4985295;28;20404;-51
2022/03/11 09:24:40;;;;;;;10.00;6.00;;;;;;;;;;4983599;28;20038;-55
2022/03/11 09:27:11;;;;;;;8.25;5.45;;;;;;;;;;4985079;28;20030;-55
2022/03/11 09:29:37;;;;;;;8.07;6.18;;;;;;;;;;4985589;28;20498;-53
2022/03/11 09:32:04;;;;;;;7.32;4.88;;;;;;;;;;4984598;28;20516;-54
2022/03/11 09:34:30;;;;;;;9.82;6.22;;;;;;;;;;4985113;28;20030;-53
2022/03/11 09:36:57;;;;;;;7.88;5.88;;;;;;;;;;4984809;28;20703;-53
2022/03/11 09:39:24;;;;;;;7.63;5.50;;;;;;;;;;4984995;28;20047;-54
2022/03/11 09:41:50;;;;;;;7.90;5.07;;;;;;;;;;4984607;28;20031;-54
2022/03/11 09:44:18;;;;;;;6.60;5.40;;;;;;;;;;4984735;28;20042;-53
2022/03/11 09:46:45;;;;;;;8.80;6.25;;;;;;;;;;4984846;28;20101;-54
2022/03/11 09:49:13;;;;;;;6.88;5.00;;;;;;;;;;4984699;28;20406;-54
2022/03/11 09:51:41;;;;;;;8.80;5.55;;;;;;;;;;4985427;28;20052;-54
2022/03/11 09:54:08;;;;;;;7.47;5.25;;;;;;;;;;4985257;28;20030;-52
2022/03/11 09:56:36;;;;;;;6.88;5.25;;;;;;;;;;4986773;28;20117;-54
2022/03/11 09:59:02;;;;;;;9.20;5.13;;;;;;;;;;4987925;28;20029;-54
2022/03/11 10:01:28;;;;;;;6.50;4.80;;;;;;;;;;4988385;28;20077;-55
2022/03/11 10:03:54;;;;;;;6.50;4.68;;;;;;;;;;4987848;28;20049;-54
2022/03/11 10:06:52;;;;;;;6.30;4.47;;;;;;;;;;4988110;28;20030;-55
2022/03/11 10:09:18;;;;;;;7.82;4.82;;;;;;;;;;4972152;28;20049;-53
2022/03/11 10:11:57;;;;;;;6.55;4.60;;;;;;;;;;4987911;28;20030;-54
2022/03/11 10:14:30;;;;;;;5.80;4.40;;;;;;;;;;4987960;28;20033;-55
2022/03/11 10:16:58;;;;;;;5.93;4.38;;;;;;;;;;4987631;28;20093;-55
2022/03/11 10:19:24;;;;;;;6.53;4.35;;;;;;;;;;4988107;28;20026;-56
2022/03/11 10:21:51;;;;;;;6.15;4.68;;;;;;;;;;4987827;28;20045;-55
2022/03/11 10:24:19;;;;;;;6.65;5.15;;;;;;;;;;4987333;28;20022;-53
2022/03/11 10:26:47;;;;;;;6.97;4.65;;;;;;;;;;4985949;28;20061;-55
2022/03/11 10:29:19;;;;;;;4.75;3.78;;;;;;;;;;4972285;28;20033;-55
2022/03/11 10:31:46;;;;;;;5.93;4.32;;;;;;;;;;4988038;28;20041;-55
2022/03/11 10:34:20;;;;;;;5.53;4.20;;;;;;;;;;4988348;28;20065;-55
2022/03/11 10:36:50;;;;;;;7.10;4.70;;;;;;;;;;4989202;28;20038;-53
2022/03/11 10:39:17;;;;;;;8.20;4.80;;;;;;;;;;4987677;28;20022;-54
2022/03/11 10:41:43;;;;;;;6.38;4.00;;;;;;;;;;4987392;28;20102;-55
2022/03/11 10:44:12;;;;;;;7.32;4.80;;;;;;;;;;4987831;28;20031;-54
2022/03/11 10:46:38;;;;;;;5.53;3.90;;;;;;;;;;4987730;28;20804;-54
2022/03/11 10:49:04;;;;;;;6.72;4.88;;;;;;;;;;4986966;28;20105;-54
2022/03/11 10:51:32;;;;;;;4.95;3.80;;;;;;;;;;4987392;28;20040;-54
2022/03/11 10:53:59;;;;;;;7.40;4.60;;;;;;;;;;4987032;28;20033;-54
2022/03/11 10:56:26;;;;;;;6.60;5.00;;;;;;;;;;4987260;28;20034;-52
2022/03/11 10:58:52;;;;;;;9.50;5.07;;;;;;;;;;4988331;28;20046;-55
2022/03/11 11:01:35;;;;;;;6.97;4.57;;;;;;;;;;4988198;28;20457;-53
2022/03/11 11:04:01;;;;;;;6.05;4.88;;;;;;;;;;4983920;28;20030;-53
2022/03/11 11:06:28;;;;;;;5.43;3.70;;;;;;;;;;4987869;28;20030;-54
2022/03/11 11:08:55;;;;;;;5.20;3.72;;;;;;;;;;4984279;28;20030;-55
2022/03/11 11:11:22;;;;;;;4.88;4.07;;;;;;;;;;4987647;28;20429;-55
2022/03/11 11:13:49;;;;;;;4.93;3.70;;;;;;;;;;4985410;28;20551;-55
2022/03/11 11:16:16;;;;;;;4.25;3.30;;;;;;;;;;4985161;28;20514;-55
2022/03/11 11:18:44;;;;;;;5.40;4.00;;;;;;;;;;4988201;28;20030;-54
2022/03/11 11:21:13;;;;;;;4.78;3.65;;;;;;;;;;4987376;28;20261;-55
2022/03/11 11:23:39;;;;;;;5.15;4.20;;;;;;;;;;4988422;28;20423;-54
2022/03/11 11:26:12;;;;;;;5.88;4.28;;;;;;;;;;4987517;28;20034;-53
2022/03/11 11:28:39;;;;;;;6.37;4.20;;;;;;;;;;4986433;28;20564;-54
2022/03/11 11:31:06;;;;;;;4.45;3.70;;;;;;;;;;4986742;28;20033;-55
2022/03/11 11:33:32;;;;;;;5.45;3.80;;;;;;;;;;4986261;28;20410;-55
2022/03/11 11:36:04;;;;;;;4.45;3.55;;;;;;;;;;4987317;28;20027;-55
2022/03/11 11:38:36;;;;;;;4.35;3.45;;;;;;;;;;4987339;28;20073;-55
2022/03/11 11:41:04;;;;;;;4.57;3.80;;;;;;;;;;4983106;28;20472;-55
2022/03/11 11:43:31;;;;;;;4.20;3.47;;;;;;;;;;4981535;28;20504;-55
2022/03/11 11:46:02;;;;;;;6.18;3.85;;;;;;;;;;4984779;28;20030;-55
2022/03/11 11:48:35;;;;;;;6.45;4.50;;;;;;;;;;4986998;28;20062;-52
2022/03/11 11:51:09;;;;;;;7.50;4.20;;;;;;;;;;4985313;28;20484;-54
2022/03/11 11:53:46;;;;;;;6.25;4.85;;;;;;;;;;4986759;28;20089;-54
2022/03/11 11:56:30;;;;;;;8.32;4.95;;;;;;;;;;4985569;28;20093;-55
2022/03/11 11:59:02;;;;;;;6.85;4.10;;;;;;;;;;4986787;28;20428;-55
2022/03/11 12:01:40;;;;;;;6.30;4.47;;;;;;;;;;4987287;28;20088;-55
2022/03/11 12:04:25;;;;;;;5.72;4.53;;;;;;;;;;4987233;28;20502;-55
2022/03/11 12:06:51;;;;;;;;;;;;;;;;;;4987950;28;20031;-55
2022/03/11 12:09:35;;;;;;;7.07;5.28;;;;;;;;;;4987304;28;20750;-54
2022/03/11 12:12:01;;;;;;;;;;;;;;;;;;4987780;28;20034;-54
2022/03/11 12:14:29;;;;;;;9.30;6.05;;;;;;;;;;4987186;28;19945;-55
2022/03/11 12:17:00;;;;;;;8.00;5.72;;;;;;;;;;4987763;28;20030;-54
2022/03/11 12:19:39;;;;;;;8.27;5.40;;;;;;;;;;4986669;28;20034;-54
2022/03/11 12:22:22;;;;;;;8.45;6.07;;;;;;;;;;4987145;28;20401;-53
2022/03/11 12:25:05;;;;;;;9.13;6.50;;;;;;;;;;4986304;28;20517;-56
2022/03/11 12:27:50;;;;;;;7.82;5.78;;;;;;;;;;4985984;28;20035;-56
2022/03/11 12:30:16;;;;;;;5.15;4.53;;;;;;;;;;4985845;28;20034;-56
2022/03/11 12:32:42;;;;;;;6.93;5.70;;;;;;;;;;4986850;28;20394;-55
2022/03/11 12:35:09;;;;;;;7.68;5.78;;;;;;;;;;4986477;28;20035;-54
2022/03/11 12:37:35;;;;;;;9.55;6.50;;;;;;;;;;4986771;28;20031;-55
2022/03/11 12:40:01;;;;;;;8.90;6.22;;;;;;;;;;4985490;28;20809;-55
2022/03/11 12:42:41;;;;;;;8.45;5.80;;;;;;;;;;4986636;28;20111;-54
2022/03/11 12:45:07;;;;;;;7.35;5.30;;;;;;;;;;4984414;28;20476;-52
2022/03/11 12:47:37;;;;;;;7.70;6.10;;;;;;;;;;4982801;28;20113;-54
2022/03/11 12:50:07;;;;;;;8.13;5.75;;;;;;;;;;4983757;28;20072;-54
2022/03/11 12:52:37;;;;;;;8.18;5.43;;;;;;;;;;4981447;28;20022;-54
2022/03/11 12:55:19;;;;;;;8.05;5.30;;;;;;;;;;4975404;28;20233;-55
2022/03/11 12:57:45;;;;;;;8.05;6.05;;;;;;;;;;4967197;28;20493;-55
2022/03/11 13:00:19;;;;;;;9.10;5.82;;;;;;;;;;4984498;28;20101;-54
2022/03/11 13:02:45;;;;;;;9.60;6.22;;;;;;;;;;4983581;28;20022;-54
2022/03/11 13:05:21;;;;;;;8.82;6.03;;;;;;;;;;4974311;28;20098;-54
2022/03/11 13:07:47;;;;;;;9.27;5.82;;;;;;;;;;4985349;28;20213;-55
2022/03/11 13:10:18;;;;;;;7.20;5.57;;;;;;;;;;4985962;28;20811;-54
2022/03/11 13:12:45;;;;;;;10.60;6.22;;;;;;;;;;4985819;28;20058;-54
2022/03/11 13:15:12;;;;;;;8.80;6.47;;;;;;;;;;4985640;28;20811;-54
2022/03/11 13:17:44;;;;;;;8.80;6.18;;;;;;;;;;4982048;28;20518;-54
2022/03/11 13:20:25;;;;;;;8.48;5.88;;;;;;;;;;4966831;28;20030;-54
2022/03/11 13:22:51;;;;;;;11.18;7.03;;;;;;;;;;4980537;28;20105;-53
2022/03/11 13:25:22;;;;;;;12.75;8.32;;;;;;;;;;4984766;28;20045;-53
2022/03/11 13:27:49;;;;;;;14.35;9.10;;;;;;;;;;4983798;28;20038;-54
2022/03/11 13:30:15;;;;;;;15.35;9.80;;;;;;;;;;4984103;28;20057;-54
2022/03/11 13:32:41;;;;;;;13.00;8.93;;;;;;;;;;4989134;28;20505;-53
2022/03/11 13:35:08;;;;;;;13.73;9.13;;;;;;;;;;4986779;28;20424;-55
2022/03/11 13:37:41;;;;;;;12.57;8.95;;;;;;;;;;4977419;28;20011;-55
2022/03/11 13:40:08;;;;;;;11.65;8.38;;;;;;;;;;4988674;28;20041;-55
2022/03/11 13:42:35;;;;;;;12.25;8.70;;;;;;;;;;4970941;28;20045;-55
2022/03/11 13:45:05;;;;;;;11.85;8.25;;;;;;;;;;4988836;28;20038;-52
2022/03/11 13:47:31;;;;;;;12.93;10.10;;;;;;;;;;4989327;28;20838;-50
2022/03/11 13:50:06;;;;;;;13.63;10.10;;;;;;;;;;4978709;28;20039;-54
2022/03/11 13:52:39;;;;;;;11.55;8.55;;;;;;;;;;4976678;28;20045;-54
2022/03/11 13:55:07;;;;;;;11.15;8.07;;;;;;;;;;4988865;28;20506;-55
2022/03/11 13:57:34;;;;;;;10.98;7.78;;;;;;;;;;4968581;28;20473;-52
2022/03/11 14:00:24;;;;;;;11.93;8.07;;;;;;;;;;4988904;28;20133;-52
2022/03/11 14:02:52;;;;;;;10.48;8.02;;;;;;;;;;4969447;28;20136;-53
2022/03/11 14:05:23;;;;;;;12.95;7.68;;;;;;;;;;4987747;28;20521;-51
2022/03/11 14:07:56;;;;;;;12.40;9.27;;;;;;;;;;4988557;28;20042;-50
2022/03/11 14:10:24;;;;;;;11.35;7.75;;;;;;;;;;4987650;28;20057;-52
2022/03/11 14:13:01;;;;;;;13.65;7.95;;;;;;;;;;4974167;28;20026;-52
2022/03/11 14:15:32;;;;;;;12.82;7.65;;;;;;;;;;4987375;28;20038;-53
2022/03/11 14:17:58;;;;;;;11.02;7.15;;;;;;;;;;4987463;28;20113;-53
2022/03/11 14:20:24;;;;;;;12.00;8.75;;;;;;;;;;4988514;28;20117;-53
2022/03/11 14:22:50;;;;;;;12.98;7.55;;;;;;;;;;4988471;28;20030;-52
2022/03/11 14:25:16;;;;;;;9.98;7.13;;;;;;;;;;4987982;28;20041;-52
2022/03/11 14:27:42;;;;;;;9.02;6.90;;;;;;;;;;4987295;28;20111;-52
2022/03/11 14:30:09;;;;;;;10.95;7.28;;;;;;;;;;4987421;28;20018;-54
2022/03/11 14:32:38;;;;;;;8.45;6.38;;;;;;;;;;4987868;28;20101;-53
2022/03/11 14:35:05;;;;;;;11.13;7.20;;;;;;;;;;4979479;28;20022;-54
2022/03/11 14:37:32;;;;;;;11.10;7.00;;;;;;;;;;4980000;28;20498;-53
2022/03/11 14:39:58;;;;;;;9.68;6.68;;;;;;;;;;4986580;28;20030;-52
2022/03/11 14:42:25;;;;;;;9.40;6.18;;;;;;;;;;4986935;28;20034;-51